createdAt,value
2017-08-19T00:00:37.565Z,3.07
2017-08-19T00:03:03.901Z,3.73
2017-08-19T00:05:30.931Z,3.00
2017-08-19T00:07:57.227Z,2.30
2017-08-19T00:10:23.571Z,2.77
2017-08-19T00:12:49.924Z,2.83
2017-08-19T00:15:16.295Z,2.50
2017-08-19T00:17:42.588Z,3.50
2017-08-19T00:20:08.857Z,2.77
2017-08-19T00:22:35.168Z,2.30
2017-08-19T00:25:02.208Z,2.60
2017-08-19T00:27:28.532Z,2.53
2017-08-19T00:29:55.581Z,2.60
2017-08-19T00:32:22.656Z,2.53
2017-08-19T00:34:48.965Z,3.00
2017-08-19T00:37:15.261Z,3.10
2017-08-19T00:39:41.536Z,2.27
2017-08-19T00:42:07.840Z,3.23
2017-08-19T00:44:34.885Z,3.40
2017-08-19T00:47:01.175Z,2.60
2017-08-19T00:49:27.465Z,2.60
2017-08-19T00:51:53.992Z,3.73
2017-08-19T00:54:21.041Z,3.43
2017-08-19T00:56:48.063Z,3.23
2017-08-19T00:59:14.369Z,3.80
2017-08-19T01:01:40.632Z,3.60
2017-08-19T01:04:07.689Z,3.50
2017-08-19T01:06:34.707Z,3.43
2017-08-19T01:09:01.016Z,3.00
2017-08-19T01:11:27.328Z,3.20
2017-08-19T01:13:53.608Z,3.10
2017-08-19T01:16:19.911Z,3.23
2017-08-19T01:18:46.235Z,3.63
2017-08-19T01:21:12.507Z,3.17
2017-08-19T01:23:38.811Z,4.20
2017-08-19T01:26:17.200Z,3.73
2017-08-19T01:28:43.620Z,3.70
2017-08-19T01:31:09.932Z,3.63
2017-08-19T01:33:36.947Z,4.37
2017-08-19T01:36:03.243Z,4.47
2017-08-19T01:38:29.512Z,5.07
2017-08-19T01:40:55.816Z,3.73
2017-08-19T01:43:22.112Z,4.00
2017-08-19T01:45:48.379Z,4.23
2017-08-19T01:48:14.688Z,4.17
2017-08-19T01:50:40.989Z,4.63
2017-08-19T01:53:07.369Z,4.40
2017-08-19T01:55:33.591Z,4.20
2017-08-19T01:57:59.869Z,4.17
2017-08-19T02:00:26.191Z,4.47
2017-08-19T02:02:53.204Z,4.83
2017-08-19T02:05:19.495Z,4.20
2017-08-19T02:07:45.772Z,5.00
2017-08-19T02:10:12.123Z,4.60
2017-08-19T02:12:39.142Z,5.27
2017-08-19T02:15:05.426Z,4.77
2017-08-19T02:17:31.764Z,6.20
2017-08-19T02:19:58.371Z,5.20
2017-08-19T02:22:24.700Z,5.80
2017-08-19T02:24:51.740Z,5.80
2017-08-19T02:27:18.016Z,5.80
2017-08-19T02:29:44.541Z,6.30
2017-08-19T02:32:10.817Z,5.60
2017-08-19T02:34:37.144Z,6.20
2017-08-19T02:37:03.479Z,6.20
2017-08-19T02:39:29.758Z,5.40
2017-08-19T02:41:56.060Z,4.70
2017-08-19T02:44:22.384Z,4.93
2017-08-19T02:46:49.388Z,4.70
2017-08-19T02:49:15.676Z,4.60
2017-08-19T02:51:42.716Z,5.47
2017-08-19T02:54:09.828Z,4.50
2017-08-19T02:56:36.119Z,4.17
2017-08-19T02:59:02.399Z,4.27
2017-08-19T03:01:29.468Z,4.37
2017-08-19T03:03:56.500Z,4.30
2017-08-19T03:06:22.797Z,4.20
2017-08-19T03:08:49.071Z,4.20
2017-08-19T03:11:16.145Z,3.63
2017-08-19T03:13:42.584Z,3.73
2017-08-19T03:16:08.884Z,3.93
2017-08-19T03:18:35.923Z,3.47
2017-08-19T03:21:02.939Z,3.73
2017-08-19T03:23:29.264Z,3.80
2017-08-19T03:25:55.564Z,4.10
2017-08-19T03:28:21.891Z,3.77
2017-08-19T03:30:48.212Z,4.20
2017-08-19T03:33:14.508Z,3.83
2017-08-19T03:35:41.584Z,4.67
2017-08-19T03:38:08.639Z,4.63
2017-08-19T03:40:34.917Z,5.07
2017-08-19T03:43:01.253Z,4.67
2017-08-19T03:45:27.527Z,4.60
2017-08-19T03:47:53.839Z,5.67
2017-08-19T03:50:20.887Z,4.97
2017-08-19T03:52:47.904Z,5.07
2017-08-19T03:55:14.223Z,5.50
2017-08-19T03:57:40.532Z,4.40
2017-08-19T04:00:06.840Z,4.93
2017-08-19T04:02:33.133Z,5.00
2017-08-19T04:05:00.488Z,5.20
2017-08-19T04:07:26.791Z,4.23
2017-08-19T04:09:53.060Z,5.43
2017-08-19T04:12:19.375Z,4.53
2017-08-19T04:14:45.659Z,4.57
2017-08-19T04:17:11.936Z,4.87
2017-08-19T04:19:38.252Z,4.90
2017-08-19T04:22:04.592Z,4.47
2017-08-19T04:24:30.942Z,5.07
2017-08-19T04:26:58.003Z,4.93
2017-08-19T04:29:24.311Z,3.87
2017-08-19T04:31:50.608Z,4.10
2017-08-19T04:34:16.888Z,4.80
2017-08-19T04:36:43.975Z,4.20
2017-08-19T04:39:10.284Z,3.47
2017-08-19T04:41:37.345Z,3.70
2017-08-19T04:44:03.696Z,4.67
2017-08-19T04:46:29.980Z,4.80
2017-08-19T04:48:57.016Z,4.77
2017-08-19T04:51:24.032Z,4.03
2017-08-19T04:53:50.340Z,4.40
2017-08-19T04:56:16.647Z,4.40
2017-08-19T04:58:42.924Z,4.60
2017-08-19T05:01:09.228Z,4.20
2017-08-19T05:03:35.496Z,3.80
2017-08-19T05:06:02.546Z,4.33
2017-08-19T05:08:29.628Z,3.50
2017-08-19T05:10:55.916Z,5.10
2017-08-19T05:13:22.241Z,2.77
2017-08-19T05:15:48.540Z,3.50
2017-08-19T05:18:14.812Z,3.13
2017-08-19T05:20:41.136Z,2.97
2017-08-19T05:23:08.204Z,2.97
2017-08-19T05:25:35.232Z,3.13
2017-08-19T05:28:01.532Z,2.60
2017-08-19T05:30:27.808Z,2.70
2017-08-19T05:32:54.121Z,2.47
2017-08-19T05:35:21.160Z,2.60
2017-08-19T05:37:47.648Z,1.93
2017-08-19T05:40:13.920Z,3.00
2017-08-19T05:42:40.231Z,2.63
2017-08-19T05:45:06.559Z,2.00
2017-08-19T05:47:32.872Z,2.40
2017-08-19T05:49:59.186Z,2.30
2017-08-19T05:52:25.494Z,2.30
2017-08-19T05:54:52.580Z,2.23
2017-08-19T05:57:18.936Z,1.90
2017-08-19T05:59:45.308Z,1.53
2017-08-19T06:02:11.652Z,2.00
2017-08-19T06:04:37.950Z,1.97
2017-08-19T06:07:04.232Z,1.80
2017-08-19T06:09:30.540Z,1.50
2017-08-19T06:11:56.854Z,1.60
2017-08-19T06:14:23.873Z,2.10
2017-08-19T06:16:50.222Z,1.83
2017-08-19T06:19:17.268Z,1.73
2017-08-19T06:21:43.556Z,1.93
2017-08-19T06:24:09.880Z,1.50
2017-08-19T06:26:36.196Z,1.67
2017-08-19T06:29:02.512Z,1.80
2017-08-19T06:31:28.792Z,1.47
2017-08-19T06:33:55.116Z,1.73
2017-08-19T06:36:21.532Z,1.60
2017-08-19T06:38:47.823Z,1.80
2017-08-19T06:41:14.865Z,1.50
2017-08-19T06:43:41.998Z,1.70
2017-08-19T06:46:08.509Z,1.60
2017-08-19T06:48:34.824Z,1.67
2017-08-19T06:51:01.130Z,1.50
2017-08-19T06:53:27.407Z,1.60
2017-08-19T06:55:53.759Z,1.48
2017-08-19T06:58:20.773Z,1.90
2017-08-19T07:00:47.131Z,1.50
2017-08-19T07:03:13.421Z,2.00
2017-08-19T07:05:39.889Z,1.65
2017-08-19T07:08:06.184Z,1.20
2017-08-19T07:10:32.530Z,1.45
2017-08-19T07:12:58.808Z,1.60
2017-08-19T07:15:25.872Z,1.50
2017-08-19T07:17:52.340Z,1.30
2017-08-19T07:20:18.785Z,1.40
2017-08-19T07:22:45.083Z,1.20
2017-08-19T07:25:11.365Z,1.55
2017-08-19T07:27:38.456Z,1.35
2017-08-19T07:30:04.774Z,1.15
2017-08-19T07:32:31.074Z,1.30
2017-08-19T07:34:58.180Z,1.12
2017-08-19T07:37:24.595Z,1.77
2017-08-19T07:39:50.954Z,1.42
2017-08-19T07:42:17.284Z,1.45
2017-08-19T07:44:43.817Z,1.40
2017-08-19T07:47:10.116Z,1.40
2017-08-19T07:49:36.419Z,1.20
2017-08-19T07:52:03.503Z,1.40
2017-08-19T07:54:29.795Z,1.17
2017-08-19T07:56:56.853Z,1.30
2017-08-19T07:59:23.124Z,1.37
2017-08-19T08:01:49.424Z,1.00
2017-08-19T08:04:15.725Z,1.23
2017-08-19T08:06:42.807Z,1.10
2017-08-19T08:09:09.080Z,1.40
2017-08-19T08:11:35.349Z,1.42
2017-08-19T08:14:01.701Z,1.20
2017-08-19T08:16:27.997Z,1.02
2017-08-19T08:18:55.043Z,0.88
2017-08-19T08:21:22.084Z,1.08
2017-08-19T08:23:49.107Z,1.17
2017-08-19T08:26:15.434Z,1.42
2017-08-19T08:28:41.721Z,1.20
2017-08-19T08:31:08.036Z,1.25
2017-08-19T08:33:34.345Z,1.55
2017-08-19T08:36:01.410Z,1.12
2017-08-19T08:38:27.725Z,1.10
2017-08-19T08:40:54.801Z,1.37
2017-08-19T08:43:21.100Z,1.08
2017-08-19T08:45:48.181Z,1.27
2017-08-19T08:48:14.499Z,1.23
2017-08-19T08:50:40.776Z,1.00
2017-08-19T08:53:07.107Z,1.15
2017-08-19T08:55:33.399Z,1.10
2017-08-19T08:57:59.780Z,1.27
2017-08-19T09:00:26.473Z,1.30
2017-08-19T09:02:52.828Z,1.10
2017-08-19T09:05:19.112Z,1.55
2017-08-19T09:07:46.200Z,1.60
2017-08-19T09:10:12.540Z,1.20
2017-08-19T09:12:38.872Z,1.42
2017-08-19T09:15:05.158Z,1.05
2017-08-19T09:17:31.510Z,1.77
2017-08-19T09:19:57.855Z,1.50
2017-08-19T09:22:24.172Z,1.50
2017-08-19T09:24:50.504Z,1.30
2017-08-19T09:27:16.863Z,1.63
2017-08-19T09:29:43.181Z,1.70
2017-08-19T09:32:09.477Z,1.90
2017-08-19T09:34:35.775Z,1.40
2017-08-19T09:37:02.816Z,1.50
2017-08-19T09:39:29.080Z,1.67
2017-08-19T09:41:55.408Z,1.43
2017-08-19T09:44:21.695Z,1.50
2017-08-19T09:46:48.164Z,1.40
2017-08-19T09:49:15.224Z,1.73
2017-08-19T09:51:41.528Z,1.50
2017-08-19T09:54:08.605Z,1.80
2017-08-19T09:56:34.905Z,1.30
2017-08-19T09:59:01.979Z,1.70
2017-08-19T10:01:28.349Z,1.57
2017-08-19T10:03:55.523Z,1.80
2017-08-19T10:06:21.844Z,1.63
2017-08-19T10:11:47.920Z,2.10
2017-08-19T10:14:14.208Z,2.30
2017-08-19T10:16:40.536Z,1.97
2017-08-19T10:19:06.859Z,2.23
2017-08-19T10:21:33.155Z,1.93
2017-08-19T10:23:59.447Z,2.97
2017-08-19T10:26:25.876Z,1.80
2017-08-19T10:28:52.216Z,1.90
2017-08-19T10:31:18.491Z,1.80
2017-08-19T10:33:44.812Z,1.70
2017-08-19T10:36:11.103Z,1.90
2017-08-19T10:38:37.553Z,1.77
2017-08-19T10:41:03.880Z,1.90
2017-08-19T10:43:30.948Z,2.37
2017-08-19T10:45:57.220Z,1.70
2017-08-19T10:48:23.572Z,2.20
2017-08-19T10:50:49.857Z,2.60
2017-08-19T10:53:16.196Z,1.87
2017-08-19T10:55:42.459Z,1.73
2017-08-19T10:58:08.783Z,2.60
2017-08-19T11:00:35.067Z,2.40
2017-08-19T11:03:01.481Z,1.43
2017-08-19T11:05:27.826Z,1.87
2017-08-19T11:07:54.145Z,1.70
2017-08-19T11:10:20.444Z,2.00
2017-08-19T11:12:46.749Z,2.07
2017-08-19T11:15:13.043Z,2.23
2017-08-19T11:17:39.507Z,1.53
2017-08-19T11:20:05.788Z,2.83
2017-08-19T11:22:32.831Z,2.07
2017-08-19T11:24:59.852Z,2.77
2017-08-19T11:27:26.248Z,1.97
2017-08-19T11:29:52.544Z,1.27
2017-08-19T11:32:18.852Z,1.60
2017-08-19T11:34:45.179Z,1.80
2017-08-19T11:37:11.481Z,1.50
2017-08-19T11:39:37.783Z,1.83
2017-08-19T11:42:04.088Z,1.70
2017-08-19T11:44:31.123Z,1.90
2017-08-19T11:46:58.191Z,1.33
2017-08-19T11:49:24.488Z,1.67
2017-08-19T11:51:50.776Z,1.67
2017-08-19T11:54:17.072Z,1.33
2017-08-19T11:56:43.385Z,1.50
2017-08-19T11:59:10.432Z,1.57
2017-08-19T12:01:36.762Z,1.33
2017-08-19T12:04:03.096Z,1.33
2017-08-19T12:06:29.379Z,1.63
2017-08-19T12:08:55.692Z,2.27
2017-08-19T12:11:22.067Z,1.40
2017-08-19T12:13:48.393Z,1.40
2017-08-19T12:16:14.696Z,1.90
2017-08-19T12:18:41.001Z,1.67
2017-08-19T12:21:07.348Z,1.90
2017-08-19T12:23:33.657Z,2.20
2017-08-19T12:26:00.020Z,2.17
2017-08-19T12:28:26.306Z,1.90
2017-08-19T12:30:52.639Z,2.27
2017-08-19T12:33:18.935Z,1.80
2017-08-19T12:35:45.262Z,2.03
2017-08-19T12:38:11.579Z,1.40
2017-08-19T12:40:37.916Z,2.40
2017-08-19T12:43:04.258Z,1.60
2017-08-19T12:45:30.572Z,1.53
2017-08-19T12:47:56.901Z,1.53
2017-08-19T12:50:23.191Z,1.70
2017-08-19T12:52:49.560Z,1.70
2017-08-19T12:55:15.862Z,1.70
2017-08-19T12:57:42.165Z,1.20
2017-08-19T13:00:08.492Z,1.50
2017-08-19T13:02:35.533Z,2.10
2017-08-19T13:05:01.852Z,1.50
2017-08-19T13:07:28.188Z,2.20
2017-08-19T13:09:54.492Z,1.53
2017-08-19T13:12:20.828Z,1.80
2017-08-19T13:14:47.151Z,2.03
2017-08-19T13:17:13.472Z,1.60
2017-08-19T13:19:39.763Z,2.23
2017-08-19T13:22:06.820Z,1.90
2017-08-19T13:24:33.116Z,1.70
2017-08-19T13:26:59.466Z,1.80
2017-08-19T13:29:26.497Z,1.53
2017-08-19T13:31:53.533Z,1.67
2017-08-19T13:34:19.991Z,1.57
2017-08-19T13:36:47.015Z,2.00
2017-08-19T13:39:13.289Z,2.17
2017-08-19T13:41:39.700Z,1.40
2017-08-19T13:44:06.748Z,1.67
2017-08-19T13:46:33.039Z,1.60
2017-08-19T13:48:59.508Z,1.67
2017-08-19T13:51:26.547Z,1.40
2017-08-19T13:53:52.848Z,1.70
2017-08-19T13:56:19.184Z,2.00
2017-08-19T13:58:45.535Z,1.50
2017-08-19T14:01:11.852Z,1.80
2017-08-19T14:03:38.308Z,1.83
2017-08-19T14:06:05.345Z,1.73
2017-08-19T14:08:32.663Z,1.67
2017-08-19T14:10:58.952Z,2.60
2017-08-19T14:13:25.413Z,1.40
2017-08-19T14:15:51.694Z,3.03
2017-08-19T14:18:18.740Z,1.70
2017-08-19T14:20:45.055Z,1.90
2017-08-19T14:23:11.376Z,2.40
2017-08-19T14:25:37.766Z,1.77
2017-08-19T14:28:04.093Z,1.73
2017-08-19T14:30:30.409Z,1.50
2017-08-19T14:32:57.460Z,1.77
2017-08-19T14:35:24.518Z,1.63
2017-08-19T14:37:50.788Z,1.60
2017-08-19T14:40:17.120Z,1.60
2017-08-19T14:42:43.419Z,2.63
2017-08-19T14:45:09.751Z,1.67
2017-08-19T14:47:36.041Z,1.80
2017-08-19T14:50:02.359Z,1.63
2017-08-19T14:52:28.682Z,1.77
2017-08-19T14:54:54.988Z,1.97
2017-08-19T14:57:21.760Z,1.80
2017-08-19T14:59:48.052Z,1.80
2017-08-19T15:02:14.428Z,1.53
2017-08-19T15:04:41.502Z,1.77
2017-08-19T15:07:07.820Z,1.93
2017-08-19T15:09:34.869Z,1.80
2017-08-19T15:12:01.920Z,1.50
2017-08-19T15:14:28.226Z,1.70
2017-08-19T15:16:54.517Z,1.63
2017-08-19T15:19:20.869Z,2.10
2017-08-19T15:21:47.167Z,1.87
2017-08-19T15:24:13.497Z,1.90
2017-08-19T15:26:39.841Z,1.53
2017-08-19T15:29:06.138Z,1.70
2017-08-19T15:31:32.417Z,1.70
2017-08-19T15:33:58.736Z,1.83
2017-08-19T15:36:25.031Z,1.40
2017-08-19T15:38:51.352Z,1.70
2017-08-19T15:41:17.631Z,1.53
2017-08-19T15:43:43.932Z,2.97
2017-08-19T15:46:10.234Z,1.77
2017-08-19T15:48:36.544Z,2.30
2017-08-19T15:51:02.843Z,2.03
2017-08-19T15:53:29.127Z,1.90
2017-08-19T15:55:56.155Z,1.70
2017-08-19T15:58:22.430Z,1.80
2017-08-19T16:00:48.764Z,2.10
2017-08-19T16:03:15.062Z,1.50
2017-08-19T16:05:41.398Z,1.80
2017-08-19T16:08:07.737Z,1.90
2017-08-19T16:10:34.016Z,1.90
2017-08-19T16:13:00.366Z,1.90
2017-08-19T16:15:26.650Z,1.50
2017-08-19T16:17:52.971Z,1.60
2017-08-19T16:20:19.296Z,2.37
2017-08-19T16:22:45.619Z,3.83
2017-08-19T16:25:12.103Z,1.97
2017-08-19T16:27:38.400Z,2.00
2017-08-19T16:30:04.716Z,1.90
2017-08-19T16:32:31.045Z,1.97
2017-08-19T16:34:57.337Z,2.40
2017-08-19T16:37:23.667Z,2.20
2017-08-19T16:39:49.951Z,2.00
2017-08-19T16:42:16.252Z,2.07
2017-08-19T16:44:42.565Z,2.20
2017-08-19T16:47:09.764Z,2.33
2017-08-19T16:49:36.069Z,3.40
2017-08-19T16:52:02.347Z,2.13
2017-08-19T16:54:28.684Z,1.80
2017-08-19T16:56:55.000Z,2.40
2017-08-19T16:59:21.344Z,2.03
2017-08-19T17:01:47.636Z,2.47
2017-08-19T17:04:13.952Z,2.60
2017-08-19T17:06:40.253Z,2.10
2017-08-19T17:09:06.581Z,1.87
2017-08-19T17:11:33.668Z,2.20
2017-08-19T17:13:59.987Z,2.90
2017-08-19T17:16:26.290Z,2.03
2017-08-19T17:18:53.342Z,2.20
2017-08-19T17:21:20.365Z,2.17
2017-08-19T17:23:46.675Z,1.77
2017-08-19T17:26:13.043Z,1.93
2017-08-19T17:28:40.262Z,1.97
2017-08-19T17:31:06.592Z,2.60
2017-08-19T17:33:32.885Z,2.33
2017-08-19T17:35:59.218Z,2.30
2017-08-19T17:38:25.508Z,2.20
2017-08-19T17:40:51.847Z,2.10
2017-08-19T17:43:18.904Z,2.30
2017-08-19T17:45:46.132Z,1.60
2017-08-19T17:48:12.454Z,1.97
2017-08-19T17:50:38.732Z,2.27
2017-08-19T17:53:05.048Z,1.87
2017-08-19T17:55:32.244Z,2.23
2017-08-19T17:57:58.539Z,2.13
2017-08-19T18:00:24.869Z,2.40
2017-08-19T18:02:51.184Z,2.00
2017-08-19T18:05:18.415Z,2.10
2017-08-19T18:07:44.696Z,1.97
2017-08-19T18:10:11.011Z,2.60
2017-08-19T18:12:37.319Z,2.17
2017-08-19T18:15:03.616Z,2.10
2017-08-19T18:17:29.935Z,1.90
2017-08-19T18:19:56.281Z,2.40
2017-08-19T18:22:22.613Z,2.60
2017-08-19T18:24:48.889Z,3.13
2017-08-19T18:27:15.228Z,2.60
2017-08-19T18:29:41.565Z,2.83
2017-08-19T18:32:07.964Z,2.00
2017-08-19T18:34:35.032Z,2.60
2017-08-19T18:37:01.342Z,3.10
2017-08-19T18:39:28.401Z,2.50
2017-08-19T18:41:54.709Z,2.50
2017-08-19T18:44:21.905Z,2.73
2017-08-19T18:46:48.297Z,2.47
2017-08-19T18:49:15.338Z,4.70
2017-08-19T18:51:41.698Z,3.10
2017-08-19T18:54:08.129Z,3.03
2017-08-19T18:56:34.473Z,2.87
2017-08-19T18:59:00.810Z,3.03
2017-08-19T19:01:27.124Z,2.60
2017-08-19T19:03:53.393Z,2.60
2017-08-19T19:06:19.742Z,2.53
2017-08-19T19:08:46.052Z,2.90
2017-08-19T19:11:12.402Z,2.17
2017-08-19T19:13:38.740Z,2.50
2017-08-19T19:16:05.784Z,3.13
2017-08-19T19:18:32.074Z,2.00
2017-08-19T19:20:58.423Z,2.30
2017-08-19T19:23:24.715Z,2.57
2017-08-19T19:25:51.057Z,2.47
2017-08-19T19:28:17.410Z,1.90
2017-08-19T19:30:43.824Z,1.77
2017-08-19T19:33:10.459Z,2.07
2017-08-19T19:35:36.755Z,2.27
2017-08-19T19:38:03.853Z,2.20
2017-08-19T19:40:30.383Z,2.97
2017-08-19T19:42:56.716Z,2.00
2017-08-19T19:45:22.993Z,2.60
2017-08-19T19:47:49.316Z,2.60
2017-08-19T19:50:15.656Z,2.27
2017-08-19T19:52:42.714Z,2.27
2017-08-19T19:55:09.034Z,2.60
2017-08-19T19:57:35.361Z,2.40
2017-08-19T20:00:02.441Z,2.70
2017-08-19T20:02:28.724Z,2.00
2017-08-19T20:04:55.041Z,2.73
2017-08-19T20:07:21.346Z,2.80
2017-08-19T20:09:47.868Z,2.40
2017-08-19T20:12:14.184Z,3.40
2017-08-19T20:14:40.536Z,3.50
2017-08-19T20:17:06.844Z,2.33
2017-08-19T20:19:33.154Z,2.60
2017-08-19T20:22:00.340Z,3.00
2017-08-19T20:24:26.674Z,2.93
2017-08-19T20:26:53.040Z,2.97
2017-08-19T20:29:19.352Z,2.60
2017-08-19T20:31:45.700Z,2.77
2017-08-19T20:34:12.182Z,3.07
2017-08-19T20:36:38.519Z,2.73
2017-08-19T20:39:04.828Z,2.80
2017-08-19T20:41:31.977Z,3.00
2017-08-19T20:43:59.028Z,3.17
2017-08-19T20:46:25.344Z,3.03
2017-08-19T20:48:52.424Z,2.70
2017-08-19T20:51:18.733Z,3.20
2017-08-19T20:53:45.781Z,2.60
2017-08-19T20:56:12.866Z,2.87
2017-08-19T20:58:39.200Z,3.13
2017-08-19T21:01:05.537Z,3.23
2017-08-19T21:03:31.836Z,3.10
2017-08-19T21:05:58.116Z,2.37
2017-08-19T21:08:24.421Z,3.50
2017-08-19T21:10:50.673Z,3.10
2017-08-19T21:13:17.000Z,2.80
2017-08-19T21:15:43.313Z,3.00
2017-08-19T21:18:09.629Z,3.03
2017-08-19T21:20:35.921Z,3.40
2017-08-19T21:23:02.941Z,2.80
2017-08-19T21:25:29.263Z,2.70
2017-08-19T21:27:55.622Z,4.63
2017-08-19T21:30:22.705Z,2.50
2017-08-19T21:32:48.999Z,2.90
2017-08-19T21:35:16.064Z,2.97
2017-08-19T21:37:42.389Z,2.60
2017-08-19T21:40:09.448Z,3.07
2017-08-19T21:42:35.783Z,2.50
2017-08-19T21:45:02.072Z,2.97
2017-08-19T21:47:28.384Z,3.43
2017-08-19T21:49:54.681Z,4.23
2017-08-19T21:52:20.970Z,4.33
2017-08-19T21:54:48.047Z,4.30
2017-08-19T21:57:14.596Z,4.03
2017-08-19T21:59:40.896Z,5.30
2017-08-19T22:02:07.931Z,5.83
2017-08-19T22:04:34.976Z,5.57
2017-08-19T22:07:02.060Z,4.83
2017-08-19T22:09:28.384Z,4.20
2017-08-19T22:11:54.712Z,3.87
2017-08-19T22:14:21.046Z,4.03
2017-08-19T22:16:47.337Z,4.30
2017-08-19T22:19:13.626Z,4.63
2017-08-19T22:21:39.915Z,4.30
2017-08-19T22:24:06.983Z,3.87
2017-08-19T22:26:33.302Z,4.73
2017-08-19T22:28:59.637Z,4.93
2017-08-19T22:31:25.940Z,3.80
2017-08-19T22:33:52.304Z,3.60
2017-08-19T22:36:18.640Z,3.70
2017-08-19T22:38:44.913Z,3.50
2017-08-19T22:41:11.193Z,3.67
2017-08-19T22:43:37.496Z,3.07
2017-08-19T22:46:04.552Z,3.40
2017-08-19T22:48:31.639Z,3.67
2017-08-19T22:50:57.972Z,4.23
2017-08-19T22:53:24.264Z,3.53
2017-08-19T22:55:51.339Z,3.40
2017-08-19T22:58:17.638Z,3.20
2017-08-19T23:00:44.648Z,3.73
2017-08-19T23:03:10.953Z,3.80
2017-08-19T23:05:37.248Z,4.60
2017-08-19T23:08:04.288Z,3.30
2017-08-19T23:10:31.300Z,3.40
2017-08-19T23:12:57.655Z,3.43
2017-08-19T23:15:24.700Z,3.63
2017-08-19T23:17:51.732Z,3.37
2017-08-19T23:20:18.039Z,3.67
2017-08-19T23:22:44.315Z,4.60
2017-08-19T23:25:11.352Z,4.00
2017-08-19T23:27:38.408Z,3.50
2017-08-19T23:30:05.431Z,4.93
2017-08-19T23:32:31.920Z,5.40
2017-08-19T23:34:58.224Z,4.10
2017-08-19T23:37:25.272Z,4.10
2017-08-19T23:39:52.294Z,5.37
2017-08-19T23:42:19.307Z,4.00
2017-08-19T23:44:45.604Z,4.73
2017-08-19T23:47:11.868Z,4.27
2017-08-19T23:49:38.187Z,4.20
2017-08-19T23:52:04.508Z,4.73
2017-08-19T23:54:30.815Z,4.00
2017-08-19T23:56:57.988Z,4.53
2017-08-19T23:59:24.365Z,4.50
